createdAt,value
2024-04-25T00:00:32.840Z,98009.21
2024-04-25T00:04:48.743Z,98014.17
2024-04-25T00:08:45.766Z,98013.36
2024-04-25T00:12:42.749Z,98016.67
2024-04-25T00:16:39.750Z,98020.45
2024-04-25T00:20:37.754Z,98019.60
2024-04-25T00:24:36.721Z,98018.64
2024-04-25T00:28:35.709Z,98013.52
2024-04-25T00:32:32.786Z,98012.32
2024-04-25T00:36:29.712Z,98013.34
2024-04-25T00:40:27.738Z,98013.00
2024-04-25T00:44:25.789Z,98012.47
2024-04-25T00:48:22.771Z,98011.39
2024-04-25T00:52:22.676Z,98011.41
2024-04-25T00:56:20.770Z,98011.30
2024-04-25T01:00:17.641Z,98008.40
2024-04-25T01:04:14.856Z,98013.34
2024-04-25T01:08:11.719Z,98012.35
2024-04-25T01:12:08.707Z,98008.83
2024-04-25T01:16:08.717Z,98001.02
2024-04-25T01:20:06.736Z,98007.94
2024-04-25T01:24:07.684Z,98012.14
2024-04-25T01:28:04.732Z,98016.20
2024-04-25T01:32:01.704Z,98015.55
2024-04-25T01:36:00.668Z,98015.82
2024-04-25T01:39:57.613Z,98018.73
2024-04-25T01:43:55.621Z,98023.27
2024-04-25T01:47:53.710Z,98023.02
2024-04-25T01:51:51.617Z,98027.60
2024-04-25T01:55:49.594Z,98028.73
2024-04-25T01:59:47.646Z,98031.83
2024-04-25T02:03:45.656Z,98031.58
2024-04-25T02:07:43.628Z,98033.27
2024-04-25T02:11:41.740Z,98038.48
2024-04-25T02:15:38.586Z,98039.62
2024-04-25T02:19:36.602Z,98041.27
2024-04-25T02:23:51.646Z,98042.15
2024-04-25T02:27:48.584Z,98048.19
2024-04-25T02:31:47.618Z,98046.86
2024-04-25T02:35:44.633Z,98049.73
2024-04-25T02:39:42.565Z,98056.62
2024-04-25T02:43:40.552Z,98065.17
2024-04-25T02:47:38.678Z,98070.33
2024-04-25T02:51:36.548Z,98072.83
2024-04-25T02:55:34.598Z,98077.78
2024-04-25T02:59:31.580Z,98082.19
2024-04-25T03:03:28.722Z,98087.27
2024-04-25T03:07:25.579Z,98088.20
2024-04-25T03:11:23.533Z,98096.27
2024-04-25T03:15:20.515Z,98094.27
2024-04-25T03:19:17.585Z,98097.94
2024-04-25T03:23:14.571Z,98100.02
2024-04-25T03:27:12.582Z,98101.44
2024-04-25T03:31:09.475Z,98105.86
2024-04-25T03:35:06.547Z,98105.30
2024-04-25T03:39:04.526Z,98108.05
2024-04-25T03:43:02.502Z,98111.79
2024-04-25T03:46:59.614Z,98119.83
2024-04-25T03:50:57.551Z,98120.31
2024-04-25T03:54:55.464Z,98126.20
2024-04-25T03:58:53.485Z,98131.73
2024-04-25T04:02:52.539Z,98135.61
2024-04-25T04:06:50.551Z,98137.81
2024-04-25T04:10:49.517Z,98139.65
2024-04-25T04:14:47.582Z,98146.56
2024-04-25T04:18:45.480Z,98153.83
2024-04-25T04:22:43.424Z,98151.33
2024-04-25T04:26:40.523Z,98158.19
2024-04-25T04:30:38.455Z,98159.16
2024-04-25T04:34:35.433Z,98162.02
2024-04-25T04:38:33.427Z,98165.90
2024-04-25T04:42:31.408Z,98167.11
2024-04-25T04:46:28.431Z,98171.89
2024-04-25T04:50:26.667Z,98173.39
2024-04-25T04:54:23.439Z,98181.30
2024-04-25T04:58:20.498Z,98184.71
2024-04-25T05:02:17.433Z,98190.70
2024-04-25T05:06:14.411Z,98191.33
2024-04-25T05:10:12.452Z,98202.23
2024-04-25T05:14:10.374Z,98203.43
2024-04-25T05:18:08.395Z,98204.41
2024-04-25T05:22:06.399Z,98209.63
2024-04-25T05:26:04.360Z,98213.69
2024-04-25T05:30:01.413Z,98220.66
2024-04-25T05:33:38.767Z,98222.27
2024-04-25T05:37:02.254Z,98229.44
2024-04-25T05:40:25.959Z,98232.88
2024-04-25T05:43:49.573Z,98232.70
2024-04-25T05:47:15.528Z,98237.05
2024-04-25T05:50:39.323Z,98248.48
2024-04-25T05:54:02.862Z,98252.98
2024-04-25T05:57:26.374Z,98250.14
2024-04-25T06:00:50.677Z,98255.41
2024-04-25T06:04:14.196Z,98257.83
2024-04-25T06:07:37.602Z,98261.60
2024-04-25T06:11:01.492Z,98262.32
2024-04-25T06:14:25.237Z,98260.09
2024-04-25T06:17:48.971Z,98260.21
2024-04-25T06:21:12.937Z,98262.45
2024-04-25T06:24:36.543Z,98261.92
2024-04-25T06:28:00.125Z,98268.39
2024-04-25T06:31:25.165Z,98268.78
2024-04-25T06:34:51.669Z,98274.02
2024-04-25T06:38:16.343Z,98278.89
2024-04-25T06:41:46.994Z,98281.04
2024-04-25T06:45:18.116Z,98284.46
2024-04-25T06:48:41.946Z,98285.23
2024-04-25T06:52:06.025Z,98293.77
2024-04-25T06:55:29.829Z,98299.30
2024-04-25T06:58:53.583Z,98301.45
2024-04-25T07:02:20.250Z,98306.77
2024-04-25T07:05:44.138Z,98308.66
2024-04-25T07:09:08.666Z,98318.60
2024-04-25T07:12:33.571Z,98320.62
2024-04-25T07:15:57.341Z,98324.42
2024-04-25T07:19:20.844Z,98325.94
2024-04-25T07:22:44.411Z,98327.86
2024-04-25T07:26:08.553Z,98335.55
2024-04-25T07:29:34.529Z,98339.06
2024-04-25T07:32:59.900Z,98345.34
2024-04-25T07:36:23.585Z,98349.20
2024-04-25T07:39:47.224Z,98357.01
2024-04-25T07:43:10.920Z,98361.09
2024-04-25T07:46:35.096Z,98365.60
2024-04-25T07:49:59.964Z,98366.37
2024-04-25T07:53:25.996Z,98368.53
2024-04-25T07:56:49.730Z,98371.65
2024-04-25T08:00:13.422Z,98381.53
2024-04-25T08:03:37.082Z,98379.77
2024-04-25T08:07:00.893Z,98379.20
2024-04-25T08:10:25.348Z,98379.92
2024-04-25T08:13:49.024Z,98374.73
2024-04-25T08:17:12.518Z,98374.10
2024-04-25T08:20:36.050Z,98375.45
2024-04-25T08:23:59.861Z,98373.20
2024-04-25T08:27:23.586Z,98379.48
2024-04-25T08:30:47.411Z,98379.80
2024-04-25T08:34:12.536Z,98385.46
2024-04-25T08:37:36.184Z,98383.49
2024-04-25T08:40:59.826Z,98383.13
2024-04-25T08:44:23.632Z,98379.52
2024-04-25T08:47:48.700Z,98379.62
2024-04-25T08:51:15.212Z,98380.35
2024-04-25T08:54:40.206Z,98382.81
2024-04-25T08:58:06.174Z,98383.80
2024-04-25T09:01:32.186Z,98384.92
2024-04-25T09:04:56.169Z,98383.86
2024-04-25T09:08:19.911Z,98379.46
2024-04-25T09:11:43.720Z,98380.59
2024-04-25T09:15:07.792Z,98381.81
2024-04-25T09:18:33.329Z,98383.30
2024-04-25T09:21:56.907Z,98387.91
2024-04-25T09:25:20.554Z,98395.58
2024-04-25T09:28:44.494Z,98402.15
2024-04-25T09:32:10.731Z,98406.83
2024-04-25T09:35:44.441Z,98411.50
2024-04-25T09:39:07.890Z,98414.69
2024-04-25T09:42:32.216Z,98415.98
2024-04-25T09:46:01.323Z,98418.35
2024-04-25T09:49:33.463Z,98422.27
2024-04-25T09:53:07.752Z,98420.86
2024-04-25T09:56:33.079Z,98421.45
2024-04-25T10:00:08.181Z,98424.61
2024-04-25T10:03:32.972Z,98425.84
2024-04-25T10:06:56.720Z,98429.87
2024-04-25T10:10:20.259Z,98429.71
2024-04-25T10:13:51.748Z,98435.80
2024-04-25T10:17:24.313Z,98440.96
2024-04-25T10:20:48.405Z,98439.60
2024-04-25T10:24:12.041Z,98442.59
2024-04-25T10:27:36.485Z,98447.03
2024-04-25T10:30:59.927Z,98446.30
2024-04-25T10:34:23.727Z,98445.69
2024-04-25T10:37:49.256Z,98444.75
2024-04-25T10:41:13.265Z,98455.86
2024-04-25T10:44:36.903Z,98461.91
2024-04-25T10:48:01.615Z,98459.37
2024-04-25T10:51:26.720Z,98463.38
2024-04-25T10:54:50.403Z,98464.83
2024-04-25T10:58:15.120Z,98465.80
2024-04-25T11:01:38.862Z,98465.45
2024-04-25T11:05:02.535Z,98475.42
2024-04-25T11:08:28.526Z,98480.85
2024-04-25T11:11:52.759Z,98482.42
2024-04-25T11:15:20.114Z,98481.77
2024-04-25T11:18:48.027Z,98482.74
2024-04-25T11:22:16.342Z,98486.84
2024-04-25T11:25:44.897Z,98489.24
2024-04-25T11:29:11.838Z,98491.07
2024-04-25T11:32:36.335Z,98491.84
2024-04-25T11:36:00.028Z,98491.88
2024-04-25T11:39:23.694Z,98493.99
2024-04-25T11:42:47.856Z,98494.88
2024-04-25T11:46:11.946Z,98491.04
2024-04-25T11:49:35.616Z,98489.13
2024-04-25T11:52:59.254Z,98487.44
2024-04-25T11:56:22.924Z,98485.77
2024-04-25T11:59:46.672Z,98484.56
2024-04-25T12:03:10.470Z,98484.52
2024-04-25T12:06:34.303Z,98485.81
2024-04-25T12:09:58.624Z,98486.45
2024-04-25T12:13:22.070Z,98485.31
2024-04-25T12:16:45.572Z,98489.52
2024-04-25T12:20:10.700Z,98490.44
2024-04-25T12:23:35.526Z,98498.52
2024-04-25T12:26:59.507Z,98492.88
2024-04-25T12:30:22.978Z,98494.90
2024-04-25T12:33:46.652Z,98493.81
2024-04-25T12:37:10.973Z,98492.59
2024-04-25T12:40:34.800Z,98496.52
2024-04-25T12:43:58.484Z,98495.30
2024-04-25T12:47:21.997Z,98495.87
2024-04-25T12:50:45.681Z,98497.66
2024-04-25T12:54:09.297Z,98496.36
2024-04-25T12:57:34.042Z,98499.17
2024-04-25T13:00:57.659Z,98502.27
2024-04-25T13:04:21.583Z,98502.44
2024-04-25T13:07:45.868Z,98499.17
2024-04-25T13:11:09.613Z,98491.02
2024-04-25T13:14:33.306Z,98486.39
2024-04-25T13:17:56.947Z,98490.15
2024-04-25T13:21:20.665Z,98489.88
2024-04-25T13:24:44.433Z,98492.39
2024-04-25T13:28:07.916Z,98492.02
2024-04-25T13:31:33.099Z,98488.61
2024-04-25T13:34:59.536Z,98482.12
2024-04-25T13:38:23.746Z,98481.75
2024-04-25T13:42:06.851Z,98483.45
2024-04-25T13:46:04.895Z,98479.63
2024-04-25T13:50:03.020Z,98477.13
2024-04-25T13:54:00.821Z,98474.21
2024-04-25T13:57:58.910Z,98477.55
2024-04-25T14:01:56.982Z,98474.27
2024-04-25T14:05:55.017Z,98478.34
2024-04-25T14:09:55.962Z,98480.95
2024-04-25T14:13:52.814Z,98477.79
2024-04-25T14:17:50.909Z,98476.92
2024-04-25T14:21:48.785Z,98475.14
2024-04-25T14:26:03.855Z,98479.73
2024-04-25T14:30:00.887Z,98486.80
2024-04-25T14:33:58.056Z,98481.61
2024-04-25T14:37:54.882Z,98479.30
2024-04-25T14:41:52.976Z,98483.53
2024-04-25T14:45:49.777Z,98485.11
2024-04-25T14:49:47.903Z,98481.39
2024-04-25T14:53:45.849Z,98475.60
2024-04-25T14:57:43.808Z,98482.48
2024-04-25T15:01:40.817Z,98482.30
2024-04-25T15:05:37.813Z,98471.21
2024-04-25T15:09:35.829Z,98475.02
2024-04-25T15:13:34.791Z,98468.06
2024-04-25T15:17:12.490Z,98465.82
2024-04-25T15:20:36.139Z,98466.85
2024-04-25T15:24:01.587Z,98465.02
2024-04-25T15:27:25.458Z,98466.19
2024-04-25T15:30:48.915Z,98471.40
2024-04-25T15:34:12.624Z,98476.27
2024-04-25T15:37:36.442Z,98473.20
2024-04-25T15:41:00.138Z,98475.19
2024-04-25T15:44:23.975Z,98475.48
2024-04-25T15:47:47.648Z,98473.82
2024-04-25T15:51:11.696Z,98478.92
2024-04-25T15:54:35.924Z,98477.96
2024-04-25T15:58:00.663Z,98484.13
2024-04-25T16:01:24.328Z,98484.44
2024-04-25T16:04:51.088Z,98482.63
2024-04-25T16:08:15.509Z,98474.70
2024-04-25T16:11:39.271Z,98472.54
2024-04-25T16:15:03.011Z,98470.37
2024-04-25T16:18:27.369Z,98478.77
2024-04-25T16:21:54.566Z,98480.76
2024-04-25T16:25:19.299Z,98482.55
2024-04-25T16:28:42.903Z,98481.45
2024-04-25T16:32:06.695Z,98482.05
2024-04-25T16:35:30.145Z,98480.83
2024-04-25T16:38:53.664Z,98479.04
2024-04-25T16:42:17.306Z,98482.11
2024-04-25T16:45:43.010Z,98483.79
2024-04-25T16:49:06.728Z,98483.85
2024-04-25T16:52:30.243Z,98492.20
2024-04-25T16:55:53.773Z,98494.80
2024-04-25T16:59:17.338Z,98500.33
2024-04-25T17:02:41.174Z,98497.84
2024-04-25T17:06:04.819Z,98504.88
2024-04-25T17:09:29.026Z,98505.70
2024-04-25T17:12:52.664Z,98506.73
2024-04-25T17:16:16.297Z,98511.23
2024-04-25T17:19:41.753Z,98513.04
2024-04-25T17:23:06.010Z,98511.21
2024-04-25T17:26:30.023Z,98516.17
2024-04-25T17:29:53.840Z,98515.21
2024-04-25T17:33:17.413Z,98512.88
2024-04-25T17:36:41.039Z,98510.83
2024-04-25T17:40:04.868Z,98514.35
2024-04-25T17:43:29.551Z,98514.57
2024-04-25T17:46:56.490Z,98515.55
2024-04-25T17:50:19.990Z,98526.92
2024-04-25T17:53:44.502Z,98536.13
2024-04-25T17:57:08.108Z,98546.85
2024-04-25T18:00:32.073Z,98550.61
2024-04-25T18:03:55.654Z,98555.59
2024-04-25T18:07:21.488Z,98564.18
2024-04-25T18:10:45.039Z,98571.28
2024-04-25T18:14:08.537Z,98573.68
2024-04-25T18:17:32.244Z,98574.92
2024-04-25T18:20:55.840Z,98575.01
2024-04-25T18:24:22.102Z,98579.75
2024-04-25T18:27:45.564Z,98576.52
2024-04-25T18:31:09.228Z,98579.31
2024-04-25T18:34:32.858Z,98578.79
2024-04-25T18:37:56.302Z,98585.86
2024-04-25T18:41:20.076Z,98590.14
2024-04-25T18:44:43.611Z,98594.19
2024-04-25T18:48:07.931Z,98602.94
2024-04-25T18:51:31.469Z,98608.76
2024-04-25T18:54:55.169Z,98618.03
2024-04-25T18:58:18.693Z,98618.83
2024-04-25T19:01:42.282Z,98621.19
2024-04-25T19:05:06.286Z,98623.34
2024-04-25T19:08:30.692Z,98624.13
2024-04-25T19:11:54.294Z,98629.74
2024-04-25T19:15:18.013Z,98632.40
2024-04-25T19:18:41.673Z,98634.25
2024-04-25T19:22:05.258Z,98640.67
2024-04-25T19:25:29.833Z,98641.30
2024-04-25T19:28:53.285Z,98648.64
2024-04-25T19:32:16.870Z,98642.27
2024-04-25T19:35:40.951Z,98644.75
2024-04-25T19:39:04.593Z,98638.31
2024-04-25T19:42:29.557Z,98641.30
2024-04-25T19:45:53.681Z,98644.33
2024-04-25T19:49:19.395Z,98646.80
2024-04-25T19:52:45.904Z,98644.96
2024-04-25T19:56:11.307Z,98650.49
2024-04-25T19:59:40.322Z,98649.87
2024-04-25T20:03:04.512Z,98650.34
2024-04-25T20:06:28.526Z,98649.27
2024-04-25T20:09:52.179Z,98653.52
2024-04-25T20:13:15.686Z,98653.10
2024-04-25T20:16:39.261Z,98662.24
2024-04-25T20:20:20.431Z,98663.60
2024-04-25T20:23:46.353Z,98664.52
2024-04-25T20:27:10.344Z,98667.14
2024-04-25T20:30:33.790Z,98667.75
2024-04-25T20:33:57.624Z,98672.05
2024-04-25T20:37:21.545Z,98675.55
2024-04-25T20:40:45.083Z,98680.52
2024-04-25T20:44:09.565Z,98682.67
2024-04-25T20:47:33.148Z,98684.49
2024-04-25T20:50:56.858Z,98688.71
2024-04-25T20:54:20.433Z,98694.66
2024-04-25T20:57:44.041Z,98690.97
2024-04-25T21:01:07.655Z,98690.89
2024-04-25T21:04:31.300Z,98694.59
2024-04-25T21:07:54.915Z,98693.07
2024-04-25T21:11:18.445Z,98698.91
2024-04-25T21:14:44.063Z,98698.43
2024-04-25T21:18:07.784Z,98696.25
2024-04-25T21:21:31.375Z,98699.84
2024-04-25T21:24:54.818Z,98700.67
2024-04-25T21:28:19.236Z,98705.05
2024-04-25T21:31:43.926Z,98704.87
2024-04-25T21:35:08.312Z,98708.89
2024-04-25T21:38:33.037Z,98706.48
2024-04-25T21:41:57.164Z,98709.88
2024-04-25T21:45:21.031Z,98712.23
2024-04-25T21:48:49.022Z,98713.29
2024-04-25T21:52:14.950Z,98717.64
2024-04-25T21:55:38.704Z,98718.55
2024-04-25T21:59:02.592Z,98718.30
2024-04-25T22:04:38.155Z,98718.81
2024-04-25T22:08:01.929Z,98721.29
2024-04-25T22:11:25.638Z,98720.77
2024-04-25T22:14:49.387Z,98720.29
2024-04-25T22:18:13.432Z,98718.40
2024-04-25T22:21:37.408Z,98720.59
2024-04-25T22:25:01.237Z,98723.44
2024-04-25T22:28:25.480Z,98725.91
2024-04-25T22:31:49.121Z,98721.55
2024-04-25T22:35:12.745Z,98717.57
2024-04-25T22:38:37.080Z,98720.96
2024-04-25T22:42:00.927Z,98719.61
2024-04-25T22:45:31.828Z,98719.27
2024-04-25T22:48:56.180Z,98717.30
2024-04-25T22:52:20.164Z,98715.72
2024-04-25T22:55:43.937Z,98711.83
2024-04-25T22:59:07.474Z,98713.85
2024-04-25T23:02:31.524Z,98709.55
2024-04-25T23:05:55.279Z,98711.52
2024-04-25T23:09:19.267Z,98712.14
2024-04-25T23:12:42.732Z,98715.44
2024-04-25T23:16:14.363Z,98715.33
2024-04-25T23:19:37.988Z,98714.46
2024-04-25T23:23:02.548Z,98710.84
2024-04-25T23:26:26.233Z,98710.92
2024-04-25T23:29:49.709Z,98710.84
2024-04-25T23:33:13.584Z,98710.53
2024-04-25T23:36:38.352Z,98708.96
2024-04-25T23:40:03.758Z,98708.10
2024-04-25T23:43:28.215Z,98706.63
2024-04-25T23:46:51.924Z,98706.83
2024-04-25T23:50:15.551Z,98704.33
2024-04-25T23:53:39.693Z,98706.39
2024-04-25T23:57:03.177Z,98708.89
